Time;durP1;ratioP1;P1;durP2;ratioP2;P2;SDS_P1;SDS_P2;PMS_P1;PMS_P2;Temp;Humidity;BMP_temperature;BMP_pressure;BME280_temperature;BME280_humidity;BME280_pressure;Samples;Min_cycle;Max_cycle;Signal;HPM_P1;HPM_P2
2021/01/02 00:02:30;;;;;;;42.37;26.20;;;5.30;85.70;;;;;;5071956;28;20039;-77
2021/01/02 00:05:14;;;;;;;43.50;27.67;;;5.30;85.60;;;;;;5053626;28;20036;-77
2021/01/02 00:08:05;;;;;;;36.80;24.40;;;5.30;85.50;;;;;;5071658;28;20021;-77
2021/01/02 00:10:37;;;;;;;41.37;26.37;;;5.30;85.40;;;;;;5054188;28;20032;-77
2021/01/02 00:13:43;;;;;;;38.60;24.17;;;5.30;85.40;;;;;;5067698;28;20033;-77
2021/01/02 00:16:09;;;;;;;41.47;24.90;;;5.30;85.50;;;;;;5065876;28;20082;-77
2021/01/02 00:19:03;;;;;;;35.43;23.47;;;5.20;85.30;;;;;;5071662;28;20029;-76
2021/01/02 00:22:06;;;;;;;41.80;27.83;;;5.20;85.00;;;;;;5054392;28;20058;-77
2021/01/02 00:25:00;;;;;;;37.40;25.10;;;5.10;85.50;;;;;;5016294;28;20096;-78
2021/01/02 00:27:40;;;;;;;36.30;24.83;;;5.20;85.60;;;;;;5050055;28;20033;-77
2021/01/02 00:30:08;;;;;;;41.90;27.37;;;5.20;85.40;;;;;;5038306;28;20388;-78
2021/01/02 00:32:58;;;;;;;41.23;25.87;;;5.20;85.70;;;;;;5033832;28;20060;-77
2021/01/02 00:35:27;;;;;;;35.93;24.70;;;5.30;85.80;;;;;;5051800;28;20396;-77
2021/01/02 00:37:55;;;;;;;36.30;24.70;;;5.30;85.30;;;;;;5032854;28;20461;-78
2021/01/02 00:40:21;;;;;;;38.60;26.00;;;5.20;85.40;;;;;;5050571;28;20025;-78
2021/01/02 00:42:48;;;;;;;37.90;25.07;;;5.30;85.60;;;;;;5033186;28;20116;-78
2021/01/02 00:45:19;;;;;;;36.87;23.97;;;5.30;85.20;;;;;;5041508;28;20493;-77
2021/01/02 00:47:45;;;;;;;39.37;25.27;;;5.20;84.80;;;;;;5069589;28;20058;-77
2021/01/02 00:50:15;;;;;;;38.50;24.97;;;5.30;85.50;;;;;;5070637;28;20033;-77
2021/01/02 00:53:01;;;;;;;38.53;24.60;;;5.40;85.60;;;;;;5064774;28;20138;-77
2021/01/02 00:55:51;;;;;;;35.60;23.63;;;5.30;85.50;;;;;;5033621;28;20118;-77
2021/01/02 00:58:19;;;;;;;34.50;24.50;;;5.30;85.30;;;;;;5051709;28;20216;-77
2021/01/02 01:00:59;;;;;;;36.37;24.37;;;5.30;85.50;;;;;;5050770;28;20540;-77
2021/01/02 01:03:43;;;;;;;35.70;23.83;;;5.40;85.70;;;;;;5071161;28;20121;-77
2021/01/02 01:06:11;;;;;;;35.97;23.67;;;5.50;85.70;;;;;;5053375;28;20040;-77
2021/01/02 01:08:43;;;;;;;36.40;24.27;;;5.40;85.40;;;;;;5070746;28;20028;-77
2021/01/02 01:11:11;;;;;;;33.93;22.83;;;5.40;85.20;;;;;;5053458;28;20016;-77
2021/01/02 01:13:37;;;;;;;34.53;23.63;;;5.40;85.40;;;;;;5036212;28;20036;-76
2021/01/02 01:16:04;;;;;;;32.53;22.60;;;5.40;85.10;;;;;;5053297;28;20043;-77
2021/01/02 01:18:47;;;;;;;34.37;22.73;;;5.30;84.10;;;;;;5053308;28;20107;-77
2021/01/02 01:21:16;;;;;;;36.60;22.13;;;5.20;84.50;;;;;;5071213;28;20033;-77
2021/01/02 01:24:09;;;;;;;34.27;24.03;;;5.20;85.00;;;;;;5052274;28;20048;-77
2021/01/02 01:26:53;;;;;;;35.13;23.27;;;5.20;84.50;;;;;;5053426;28;20366;-77
2021/01/02 01:29:26;;;;;;;35.93;22.93;;;5.10;85.00;;;;;;5051014;28;20040;-77
2021/01/02 01:31:56;;;;;;;36.15;23.20;;;5.20;85.10;;;;;;5050604;28;20021;-77
2021/01/02 01:34:25;;;;;;;33.50;23.07;;;5.10;85.20;;;;;;5033196;28;20043;-77
2021/01/02 01:36:51;;;;;;;34.37;22.60;;;5.10;85.10;;;;;;5050246;28;20032;-77
2021/01/02 01:39:21;;;;;;;34.73;22.90;;;4.90;83.90;;;;;;5033266;28;20477;-77
2021/01/02 01:42:18;;;;;;;31.80;22.90;;;4.80;84.00;;;;;;5032799;28;20373;-77
2021/01/02 01:45:21;;;;;;;34.93;21.93;;;4.90;84.60;;;;;;5032025;28;20033;-77
2021/01/02 01:48:07;;;;;;;34.57;22.03;;;4.90;84.90;;;;;;5070100;28;20059;-77
2021/01/02 01:50:54;;;;;;;36.10;23.23;;;4.90;84.80;;;;;;5072461;28;20112;-77
2021/01/02 01:53:41;;;;;;;32.50;21.90;;;4.90;85.00;;;;;;5061625;28;20028;-76
2021/01/02 01:56:30;;;;;;;37.33;23.23;;;4.90;85.10;;;;;;5056591;28;20139;-77
2021/01/02 01:59:19;;;;;;;35.83;23.77;;;4.90;85.00;;;;;;5056006;28;20086;-77
2021/01/02 02:01:50;;;;;;;31.77;21.63;;;4.80;84.50;;;;;;5074909;28;20092;-75
2021/01/02 02:04:53;;;;;;;36.80;24.10;;;4.60;84.70;;;;;;5056970;28;20036;-77
2021/01/02 02:07:20;;;;;;;36.58;23.33;;;4.70;84.90;;;;;;5074428;28;20021;-77
2021/01/02 02:09:59;;;;;;;36.80;23.80;;;4.60;85.20;;;;;;5055918;28;20047;-77
2021/01/02 02:12:33;;;;;;;34.87;23.47;;;4.60;85.40;;;;;;5074636;28;20071;-77
2021/01/02 02:14:59;;;;;;;40.13;23.83;;;4.60;85.50;;;;;;5055808;28;20287;-77
2021/01/02 02:17:26;;;;;;;36.10;23.53;;;4.60;85.60;;;;;;5074794;28;20452;-77
2021/01/02 02:20:16;;;;;;;32.83;22.17;;;4.70;85.60;;;;;;5064441;28;20036;-77
2021/01/02 02:22:42;;;;;;;36.03;23.00;;;4.70;85.70;;;;;;5063082;28;20036;-77
2021/01/02 02:25:12;;;;;;;37.20;24.20;;;4.80;85.90;;;;;;5055779;28;20029;-78
2021/01/02 02:27:41;;;;;;;35.73;24.07;;;4.80;85.40;;;;;;5091222;28;20017;-78
2021/01/02 02:30:13;;;;;;;35.83;24.10;;;4.70;84.70;;;;;;5090042;28;20021;-77
2021/01/02 02:32:45;;;;;;;33.88;23.30;;;4.60;85.00;;;;;;5049646;28;20032;-77
2021/01/02 02:35:14;;;;;;;36.72;23.98;;;4.60;85.10;;;;;;5059827;28;20470;-78
2021/01/02 02:37:44;;;;;;;38.07;23.77;;;4.70;85.50;;;;;;5056402;28;20035;-76
2021/01/02 02:40:13;;;;;;;35.70;24.53;;;4.60;85.10;;;;;;5056270;28;20085;-77
2021/01/02 02:42:45;;;;;;;36.93;24.53;;;4.60;85.10;;;;;;5073671;28;20031;-77
2021/01/02 02:45:13;;;;;;;41.50;26.23;;;4.50;84.40;;;;;;5074121;28;20081;-77
2021/01/02 02:47:41;;;;;;;38.30;24.97;;;4.40;84.40;;;;;;5072633;28;20259;-78
2021/01/02 02:50:27;;;;;;;41.90;25.83;;;4.40;84.90;;;;;;5055192;28;20622;-77
2021/01/02 02:53:13;;;;;;;37.87;24.67;;;4.40;84.60;;;;;;5040323;28;20033;-78
2021/01/02 02:55:40;;;;;;;40.13;25.83;;;4.40;85.00;;;;;;5073293;28;20090;-78
2021/01/02 02:58:06;;;;;;;39.20;25.93;;;4.40;85.20;;;;;;5038483;28;20025;-77
2021/01/02 03:00:33;;;;;;;39.47;25.43;;;4.40;85.40;;;;;;5066621;28;20106;-78
2021/01/02 03:03:01;;;;;;;34.97;23.67;;;4.50;85.40;;;;;;5050743;28;20143;-78
2021/01/02 03:05:27;;;;;;;39.20;24.27;;;4.60;85.90;;;;;;5053339;28;20033;-78
2021/01/02 03:07:53;;;;;;;37.87;25.27;;;4.60;85.70;;;;;;5034930;28;20037;-77
2021/01/02 03:10:21;;;;;;;41.23;25.57;;;4.70;85.70;;;;;;5052655;28;20044;-78
2021/01/02 03:12:52;;;;;;;37.00;24.83;;;4.70;85.20;;;;;;5062877;28;20100;-77
2021/01/02 03:15:22;;;;;;;38.40;24.40;;;4.70;85.40;;;;;;5055704;28;20120;-78
2021/01/02 03:17:49;;;;;;;37.47;24.00;;;4.80;85.50;;;;;;5055758;28;20035;-77
2021/01/02 03:20:17;;;;;;;40.83;24.87;;;4.70;85.50;;;;;;5055917;28;20047;-77
2021/01/02 03:22:45;;;;;;;37.43;23.40;;;4.80;85.80;;;;;;5043916;28;20035;-78
2021/01/02 03:25:13;;;;;;;35.80;22.87;;;4.90;86.00;;;;;;5054796;28;20094;-77
2021/01/02 03:27:38;;;;;;;38.60;24.60;;;4.90;85.70;;;;;;5055221;28;20530;-78
2021/01/02 03:30:07;;;;;;;41.00;24.30;;;4.80;85.40;;;;;;5054228;28;20025;-77
2021/01/02 03:32:34;;;;;;;34.60;22.67;;;4.80;85.50;;;;;;5072749;28;20104;-78
2021/01/02 03:34:59;;;;;;;36.27;22.87;;;4.80;85.40;;;;;;5054183;28;20499;-77
2021/01/02 03:37:25;;;;;;;35.07;22.37;;;4.90;85.50;;;;;;5055409;28;20033;-78
2021/01/02 03:39:51;;;;;;;34.23;22.13;;;5.00;85.60;;;;;;5072572;28;20032;-77
2021/01/02 03:42:17;;;;;;;32.73;21.43;;;5.00;85.30;;;;;;5054905;28;20035;-78
2021/01/02 03:44:42;;;;;;;34.03;22.13;;;5.00;85.40;;;;;;5038385;28;20033;-78
2021/01/02 03:47:09;;;;;;;33.53;21.63;;;5.10;85.60;;;;;;5071965;28;20087;-78
2021/01/02 03:49:36;;;;;;;30.70;20.97;;;5.10;85.50;;;;;;5035883;28;20063;-78
2021/01/02 03:52:03;;;;;;;34.47;21.47;;;5.10;85.10;;;;;;5036675;28;20028;-78
2021/01/02 03:54:29;;;;;;;42.83;23.50;;;5.00;85.00;;;;;;5038106;28;20039;-78
2021/01/02 03:56:55;;;;;;;33.67;21.47;;;5.00;84.30;;;;;;5053553;28;20063;-78
2021/01/02 03:59:20;;;;;;;33.30;21.37;;;4.80;84.20;;;;;;5021604;28;20031;-78
2021/01/02 04:01:56;;;;;;;33.97;21.63;;;4.70;84.50;;;;;;5072087;28;20031;-77
2021/01/02 04:04:23;;;;;;;34.47;20.73;;;4.70;85.10;;;;;;5065065;28;20365;-78
2021/01/02 04:06:51;;;;;;;36.63;21.80;;;4.80;85.30;;;;;;5071684;28;20025;-76
2021/01/02 04:09:20;;;;;;;31.13;19.90;;;4.80;85.20;;;;;;5054273;28;20029;-78
2021/01/02 04:11:46;;;;;;;31.63;20.13;;;4.90;85.30;;;;;;5070628;28;20025;-78
2021/01/02 04:14:12;;;;;;;35.50;21.77;;;4.90;85.40;;;;;;5070303;28;20040;-78
2021/01/02 04:16:39;;;;;;;31.43;20.63;;;4.90;85.20;;;;;;5054535;28;20025;-78
2021/01/02 04:19:06;;;;;;;32.40;20.00;;;5.00;85.30;;;;;;5070124;28;20459;-77
2021/01/02 04:21:33;;;;;;;35.67;20.13;;;5.00;85.30;;;;;;5071930;28;20039;-78
2021/01/02 04:23:58;;;;;;;33.10;20.27;;;5.10;85.10;;;;;;5071341;28;20025;-78
2021/01/02 04:26:25;;;;;;;32.30;20.13;;;5.10;85.40;;;;;;5053827;28;20127;-78
2021/01/02 04:28:52;;;;;;;33.77;20.40;;;5.10;85.00;;;;;;5053225;28;20082;-77
2021/01/02 04:31:22;;;;;;;34.53;21.37;;;5.00;85.00;;;;;;5054928;28;20052;-78
2021/01/02 04:33:48;;;;;;;33.60;20.70;;;5.00;84.70;;;;;;5071505;28;20045;-77
2021/01/02 04:36:17;;;;;;;34.90;20.67;;;4.90;84.60;;;;;;5070948;28;20524;-78
2021/01/02 04:38:44;;;;;;;35.00;22.37;;;4.80;84.50;;;;;;5069645;28;20440;-78
2021/01/02 04:41:13;;;;;;;34.87;20.97;;;4.80;84.90;;;;;;5068585;28;20020;-78
2021/01/02 04:43:40;;;;;;;34.07;20.57;;;4.80;84.60;;;;;;5053933;28;20040;-77
2021/01/02 04:46:06;;;;;;;32.73;20.17;;;4.80;84.80;;;;;;5071618;28;20081;-78
2021/01/02 04:48:32;;;;;;;35.67;22.13;;;4.90;85.00;;;;;;5071678;28;20028;-78
2021/01/02 04:50:58;;;;;;;33.70;21.40;;;4.80;84.20;;;;;;5070199;28;20031;-78
2021/01/02 04:53:24;;;;;;;34.27;21.63;;;4.80;84.60;;;;;;5069292;28;20037;-77
2021/01/02 04:55:52;;;;;;;34.77;21.17;;;4.90;84.80;;;;;;5067626;28;20408;-77
2021/01/02 04:58:19;;;;;;;38.93;23.57;;;4.90;84.90;;;;;;5071558;28;20461;-77
2021/01/02 05:00:47;;;;;;;37.03;22.07;;;4.90;84.80;;;;;;5037409;28;20077;-77
2021/01/02 05:03:13;;;;;;;35.17;21.50;;;4.90;84.80;;;;;;5052584;28;20620;-79
2021/01/02 05:05:42;;;;;;;36.43;22.93;;;4.90;85.00;;;;;;5053385;28;20032;-78
2021/01/02 05:08:07;;;;;;;35.27;20.83;;;4.90;84.50;;;;;;5052649;28;20029;-78
2021/01/02 05:10:33;;;;;;;33.13;20.53;;;4.90;84.70;;;;;;5037129;28;20111;-78
2021/01/02 05:13:12;;;;;;;31.43;20.77;;;4.90;84.90;;;;;;5070518;28;20029;-78
2021/01/02 05:15:38;;;;;;;34.17;20.07;;;4.90;85.10;;;;;;5053569;28;20060;-78
2021/01/02 05:18:04;;;;;;;33.77;20.60;;;5.00;85.20;;;;;;5052396;28;20031;-78
2021/01/02 05:20:30;;;;;;;33.80;22.10;;;5.00;84.80;;;;;;5053203;28;20590;-78
2021/01/02 05:23:09;;;;;;;32.40;21.13;;;5.10;84.90;;;;;;5069761;28;20023;-78
2021/01/02 05:25:36;;;;;;;34.77;21.27;;;4.90;84.50;;;;;;5069161;28;20021;-78
2021/01/02 05:28:01;;;;;;;34.30;22.83;;;4.90;84.70;;;;;;5069706;28;20030;-78
2021/01/02 05:30:31;;;;;;;33.50;20.93;;;4.80;83.90;;;;;;5070997;28;20439;-78
2021/01/02 05:33:08;;;;;;;37.70;22.33;;;4.70;84.00;;;;;;5070291;28;20070;-78
2021/01/02 05:35:47;;;;;;;35.57;22.27;;;4.70;83.50;;;;;;5071060;28;20107;-78
2021/01/02 05:38:24;;;;;;;36.73;22.77;;;4.50;83.90;;;;;;5070374;28;20024;-78
2021/01/02 05:40:58;;;;;;;35.60;22.37;;;4.50;84.00;;;;;;5053126;28;20043;-78
2021/01/02 05:43:26;;;;;;;37.77;22.60;;;4.50;84.50;;;;;;5052721;28;20040;-78
2021/01/02 05:45:53;;;;;;;37.97;22.67;;;4.60;84.70;;;;;;5052558;28;20115;-76
2021/01/02 05:48:23;;;;;;;35.93;21.97;;;4.50;84.40;;;;;;5070191;28;20024;-78
2021/01/02 05:51:00;;;;;;;39.23;22.43;;;4.40;84.40;;;;;;5052502;28;20125;-78
2021/01/02 05:53:32;;;;;;;38.60;23.00;;;4.40;84.40;;;;;;5052558;28;20028;-77
2021/01/02 05:56:12;;;;;;;35.95;22.08;;;4.40;85.00;;;;;;5067424;28;20075;-77
2021/01/02 05:58:40;;;;;;;37.20;21.80;;;4.40;85.10;;;;;;5070964;28;20022;-77
2021/01/02 06:01:17;;;;;;;35.23;22.40;;;4.50;85.20;;;;;;5068798;28;20024;-77
2021/01/02 06:03:47;;;;;;;34.17;20.80;;;4.50;85.20;;;;;;5069458;28;20032;-77
2021/01/02 06:06:18;;;;;;;34.00;21.97;;;4.60;85.60;;;;;;5070185;28;20032;-77
2021/01/02 06:08:49;;;;;;;35.30;21.43;;;4.60;85.20;;;;;;5070488;28;20433;-77
2021/01/02 06:11:17;;;;;;;36.23;21.97;;;4.70;85.50;;;;;;5052060;28;20028;-78
2021/01/02 06:13:45;;;;;;;36.97;20.73;;;4.70;85.30;;;;;;5051675;28;20365;-77
2021/01/02 06:16:11;;;;;;;40.47;24.13;;;4.70;85.60;;;;;;5069701;28;20103;-77
2021/01/02 06:18:39;;;;;;;38.03;22.23;;;4.70;85.50;;;;;;5052399;28;20460;-78
2021/01/02 06:21:12;;;;;;;36.27;22.07;;;4.60;85.10;;;;;;5051674;28;20090;-78
2021/01/02 06:23:40;;;;;;;40.23;22.43;;;4.60;85.50;;;;;;5068372;28;20115;-78
2021/01/02 06:26:08;;;;;;;37.83;22.17;;;4.60;85.20;;;;;;5050820;28;20024;-77
2021/01/02 06:28:35;;;;;;;33.97;21.30;;;4.50;85.20;;;;;;5052474;28;20025;-78
2021/01/02 06:31:07;;;;;;;34.33;20.73;;;4.60;85.70;;;;;;5049986;28;20106;-77
2021/01/02 06:33:33;;;;;;;35.93;20.53;;;4.50;85.70;;;;;;5051994;28;20033;-77
2021/01/02 06:35:59;;;;;;;36.73;20.80;;;4.50;85.80;;;;;;5020181;28;20036;-77
2021/01/02 06:38:25;;;;;;;38.63;23.33;;;4.50;85.90;;;;;;5056177;28;20027;-78
2021/01/02 06:40:54;;;;;;;42.27;23.30;;;4.50;85.80;;;;;;5074287;28;20032;-78
2021/01/02 06:43:22;;;;;;;37.07;21.43;;;4.30;85.50;;;;;;5074670;28;20028;-77
2021/01/02 06:45:48;;;;;;;40.10;22.60;;;4.30;86.00;;;;;;5074581;28;20078;-78
2021/01/02 06:48:17;;;;;;;41.33;23.20;;;4.40;86.40;;;;;;5073167;28;20028;-77
2021/01/02 06:50:50;;;;;;;42.67;23.90;;;4.50;86.30;;;;;;5055449;28;20036;-78
2021/01/02 06:53:22;;;;;;;47.28;24.92;;;4.50;86.00;;;;;;5072789;28;20064;-77
2021/01/02 06:56:01;;;;;;;42.95;24.77;;;4.50;85.30;;;;;;5074276;28;20179;-77
2021/01/02 06:58:44;;;;;;;40.67;23.40;;;4.50;85.80;;;;;;5056087;28;20020;-77
2021/01/02 07:01:16;;;;;;;;;;;4.50;85.70;;;;;;5039557;28;20037;-78
2021/01/02 07:03:41;;;;;;;45.33;24.13;;;4.60;85.80;;;;;;5073681;28;19913;-77
2021/01/02 07:06:27;;;;;;;44.93;24.27;;;4.70;86.20;;;;;;5072037;28;20081;-77
2021/01/02 07:08:58;;;;;;;41.23;22.40;;;4.60;85.80;;;;;;5055648;28;20059;-78
2021/01/02 07:11:38;;;;;;;42.67;23.27;;;4.70;85.90;;;;;;5055370;28;20024;-78
2021/01/02 07:14:09;;;;;;;44.33;24.13;;;4.70;85.80;;;;;;5054569;28;20035;-77
2021/01/02 07:16:55;;;;;;;42.23;22.93;;;4.70;85.00;;;;;;5073382;28;20111;-77
2021/01/02 07:19:23;;;;;;;43.07;22.30;;;4.70;85.30;;;;;;5053859;28;20094;-77
2021/01/02 07:21:56;;;;;;;42.80;23.17;;;4.80;85.80;;;;;;5055414;28;20043;-77
2021/01/02 07:24:32;;;;;;;42.83;23.65;;;4.90;85.80;;;;;;5070361;28;20074;-77
2021/01/02 07:27:03;;;;;;;43.93;24.03;;;4.90;85.70;;;;;;5072972;28;20036;-76
2021/01/02 07:29:31;;;;;;;44.57;24.97;;;5.00;85.80;;;;;;5055187;28;20025;-78
2021/01/02 07:32:14;;;;;;;43.60;24.57;;;4.90;84.90;;;;;;5055257;28;20060;-76
2021/01/02 07:34:44;;;;;;;47.67;25.17;;;4.90;85.20;;;;;;5071730;28;20037;-77
2021/01/02 07:37:12;;;;;;;43.63;24.83;;;4.90;84.30;;;;;;5071986;28;20103;-77
2021/01/02 07:39:38;;;;;;;49.10;26.50;;;4.80;84.70;;;;;;5071773;28;20432;-77
2021/01/02 07:42:10;;;;;;;49.13;26.57;;;4.90;85.10;;;;;;5072107;28;20057;-77
2021/01/02 07:44:37;;;;;;;49.10;25.93;;;4.80;84.70;;;;;;5071506;28;20546;-77
2021/01/02 07:47:04;;;;;;;46.00;24.87;;;4.80;85.00;;;;;;5064960;28;20536;-77
2021/01/02 07:49:30;;;;;;;47.83;26.33;;;4.70;84.80;;;;;;5071199;28;20029;-77
2021/01/02 07:51:55;;;;;;;45.47;25.53;;;4.70;85.00;;;;;;5054763;28;20422;-78
2021/01/02 07:54:36;;;;;;;47.53;25.90;;;4.80;85.40;;;;;;5036996;28;20609;-77
2021/01/02 07:57:07;;;;;;;44.87;24.77;;;4.90;85.50;;;;;;5070276;28;20052;-77
2021/01/02 07:59:38;;;;;;;44.87;27.30;;;5.00;85.70;;;;;;5072165;28;20471;-78
2021/01/02 08:02:09;;;;;;;47.00;27.10;;;5.00;85.30;;;;;;5070714;28;20024;-77
2021/01/02 08:04:36;;;;;;;45.03;25.10;;;4.90;84.50;;;;;;5071629;28;20028;-77
2021/01/02 08:07:06;;;;;;;48.17;26.63;;;5.00;85.30;;;;;;5071276;28;20077;-78
2021/01/02 08:09:33;;;;;;;43.60;25.83;;;5.00;85.10;;;;;;5053863;28;20120;-77
2021/01/02 08:12:06;;;;;;;48.60;27.00;;;5.10;85.60;;;;;;5064149;28;20024;-77
2021/01/02 08:14:34;;;;;;;46.08;26.55;;;5.10;85.10;;;;;;5070065;28;20033;-77
2021/01/02 08:17:06;;;;;;;49.57;27.73;;;5.20;85.10;;;;;;5053789;28;20064;-78
2021/01/02 08:19:48;;;;;;;50.92;27.98;;;5.20;84.70;;;;;;5070929;28;20356;-78
2021/01/02 08:22:36;;;;;;;52.67;28.63;;;5.20;84.90;;;;;;5081247;28;20499;-78
2021/01/02 08:25:15;;;;;;;52.43;27.50;;;5.20;84.30;;;;;;5069242;28;20028;-77
2021/01/02 08:27:41;;;;;;;51.57;27.90;;;5.10;84.10;;;;;;5070670;28;20031;-77
2021/01/02 08:30:09;;;;;;;48.63;27.57;;;5.20;84.70;;;;;;5053061;28;20028;-77
2021/01/02 08:32:36;;;;;;;53.40;29.77;;;5.20;84.80;;;;;;5054025;28;20056;-77
2021/01/02 08:35:14;;;;;;;52.30;27.90;;;5.20;84.40;;;;;;5053403;28;20060;-77
2021/01/02 08:37:39;;;;;;;50.33;26.27;;;5.10;84.20;;;;;;5087751;28;20073;-77
2021/01/02 08:40:08;;;;;;;51.23;27.27;;;5.20;85.20;;;;;;5053320;28;20392;-78
2021/01/02 08:42:35;;;;;;;49.80;27.13;;;5.30;85.30;;;;;;5071644;28;20491;-78
2021/01/02 08:45:01;;;;;;;49.90;28.00;;;5.40;85.70;;;;;;5054877;28;20025;-78
2021/01/02 08:47:27;;;;;;;54.10;29.50;;;5.50;84.70;;;;;;5050205;28;20028;-78
2021/01/02 08:49:53;;;;;;;56.23;30.57;;;5.40;84.30;;;;;;5037128;28;20127;-78
2021/01/02 08:52:24;;;;;;;59.97;32.13;;;5.50;84.20;;;;;;5053132;28;20177;-77
2021/01/02 08:55:07;;;;;;;55.47;31.47;;;5.50;84.30;;;;;;5054186;28;20059;-77
2021/01/02 08:57:53;;;;;;;56.38;31.25;;;5.50;83.60;;;;;;5052668;28;20053;-77
2021/01/02 09:00:29;;;;;;;57.90;31.43;;;5.50;83.70;;;;;;5084293;28;20051;-78
2021/01/02 09:02:54;;;;;;;58.73;31.43;;;5.60;83.80;;;;;;5053971;28;20422;-77
2021/01/02 09:05:34;;;;;;;58.57;32.20;;;5.50;83.70;;;;;;5070999;28;20028;-76
2021/01/02 09:08:03;;;;;;;59.23;31.83;;;5.60;83.60;;;;;;5053839;28;20020;-78
2021/01/02 09:10:33;;;;;;;59.63;33.97;;;5.50;83.00;;;;;;5070556;28;20032;-78
2021/01/02 09:13:02;;;;;;;60.10;33.07;;;5.50;82.80;;;;;;5050120;28;20377;-78
2021/01/02 09:15:43;;;;;;;62.80;32.17;;;5.50;81.60;;;;;;5048851;28;20375;-78
2021/01/02 09:18:10;;;;;;;59.50;31.60;;;5.40;81.80;;;;;;5064203;28;20376;-78
2021/01/02 09:20:36;;;;;;;58.87;31.40;;;5.50;82.60;;;;;;5046956;28;20041;-78
2021/01/02 09:23:01;;;;;;;63.30;33.63;;;5.60;83.20;;;;;;5052139;28;20040;-78
2021/01/02 09:25:31;;;;;;;66.07;33.67;;;5.70;83.40;;;;;;5062321;28;20036;-77
2021/01/02 09:28:10;;;;;;;69.63;36.60;;;5.80;83.60;;;;;;5081200;28;20020;-77
2021/01/02 09:30:35;;;;;;;63.53;35.13;;;6.10;84.00;;;;;;5047192;28;20082;-77
2021/01/02 09:33:01;;;;;;;64.07;34.13;;;6.20;83.50;;;;;;5047218;28;20032;-78
2021/01/02 09:35:27;;;;;;;69.83;34.90;;;6.20;82.50;;;;;;5078801;28;20044;-77
2021/01/02 09:37:52;;;;;;;67.43;35.30;;;6.30;82.50;;;;;;5051944;28;20040;-79
2021/01/02 09:40:20;;;;;;;62.57;34.13;;;6.30;80.50;;;;;;5064731;28;20041;-79
2021/01/02 09:42:47;;;;;;;65.60;34.13;;;6.20;80.90;;;;;;5061390;28;20036;-78
2021/01/02 09:45:13;;;;;;;80.20;38.27;;;6.00;80.10;;;;;;5063251;28;20171;-77
2021/01/02 09:47:39;;;;;;;78.90;39.10;;;5.90;81.50;;;;;;5066026;28;20067;-78
2021/01/02 09:50:06;;;;;;;78.67;39.03;;;6.00;82.60;;;;;;5047093;28;20085;-78
2021/01/02 09:52:33;;;;;;;70.23;35.47;;;6.20;82.40;;;;;;5047515;28;20029;-76
2021/01/02 09:54:59;;;;;;;68.63;35.73;;;6.20;81.50;;;;;;5055946;28;20062;-77
2021/01/02 09:57:24;;;;;;;77.27;41.27;;;6.20;81.60;;;;;;5040237;28;20049;-78
2021/01/02 09:59:50;;;;;;;72.77;38.77;;;6.30;82.50;;;;;;5062928;28;20089;-78
2021/01/02 10:02:16;;;;;;;74.33;37.73;;;6.40;81.70;;;;;;5047097;28;20059;-78
2021/01/02 10:04:46;;;;;;;68.23;36.37;;;6.40;80.90;;;;;;5072248;28;20067;-77
2021/01/02 10:07:12;;;;;;;75.90;38.60;;;6.40;80.80;;;;;;5034981;28;20032;-78
2021/01/02 10:09:39;;;;;;;75.93;39.43;;;6.30;79.60;;;;;;5052610;28;20028;-78
2021/01/02 10:12:06;;;;;;;78.60;39.70;;;6.20;79.90;;;;;;5056394;28;20056;-78
2021/01/02 10:14:31;;;;;;;80.07;42.53;;;6.20;80.60;;;;;;5058434;28;20455;-78
2021/01/02 10:16:57;;;;;;;77.10;40.90;;;6.20;81.20;;;;;;5070058;28;20055;-78
2021/01/02 10:19:22;;;;;;;71.17;36.73;;;6.40;81.60;;;;;;5039422;28;20059;-78
2021/01/02 10:21:49;;;;;;;71.43;35.07;;;6.50;79.70;;;;;;5040665;28;20071;-78
2021/01/02 10:24:15;;;;;;;78.43;40.97;;;6.40;79.00;;;;;;5056740;28;20034;-77
2021/01/02 10:26:40;;;;;;;82.90;41.37;;;6.40;80.00;;;;;;5073261;28;20491;-77
2021/01/02 10:29:06;;;;;;;76.03;38.70;;;6.60;80.60;;;;;;5056817;28;20031;-77
2021/01/02 10:31:32;;;;;;;82.70;41.60;;;6.60;79.90;;;;;;5074021;28;20028;-78
2021/01/02 10:33:57;;;;;;;73.60;36.83;;;6.60;80.00;;;;;;5059969;28;20048;-78
2021/01/02 10:36:23;;;;;;;73.70;38.17;;;6.50;79.00;;;;;;5064314;28;20113;-78
2021/01/02 10:38:48;;;;;;;78.87;40.47;;;6.40;79.60;;;;;;5058508;28;20036;-78
2021/01/02 10:41:15;;;;;;;80.77;37.70;;;6.30;80.00;;;;;;5038758;28;20051;-77
2021/01/02 10:43:40;;;;;;;82.40;40.40;;;6.40;80.50;;;;;;5074767;28;20055;-79
2021/01/02 10:46:07;;;;;;;75.30;40.17;;;6.30;80.20;;;;;;5055500;28;20056;-79
2021/01/02 10:48:33;;;;;;;83.13;41.27;;;6.50;81.10;;;;;;5054312;28;20086;-80
2021/01/02 10:50:58;;;;;;;80.67;41.17;;;6.50;80.80;;;;;;5037218;28;20028;-79
2021/01/02 10:53:24;;;;;;;81.97;41.33;;;6.60;80.90;;;;;;5056095;28;20401;-78
2021/01/02 10:55:49;;;;;;;77.87;37.37;;;6.60;80.80;;;;;;5038018;28;20037;-79
2021/01/02 10:58:15;;;;;;;81.27;37.97;;;6.50;78.90;;;;;;5033423;28;20369;-78
2021/01/02 11:00:41;;;;;;;82.93;43.13;;;6.40;79.80;;;;;;5036528;28;20025;-79
2021/01/02 11:03:06;;;;;;;84.00;43.87;;;6.50;80.90;;;;;;5052734;28;20038;-79
2021/01/02 11:05:32;;;;;;;80.93;40.87;;;6.70;81.70;;;;;;5035183;28;20493;-79
2021/01/02 11:07:57;;;;;;;78.63;39.37;;;6.80;81.10;;;;;;5019481;28;20461;-78
2021/01/02 11:10:23;;;;;;;98.80;47.70;;;6.70;79.50;;;;;;5052988;28;20101;-79
2021/01/02 11:12:49;;;;;;;80.97;40.30;;;6.70;82.00;;;;;;5052173;28;20036;-79
2021/01/02 11:15:14;;;;;;;86.40;41.83;;;6.90;80.90;;;;;;5052989;28;20090;-77
2021/01/02 11:17:40;;;;;;;82.37;39.97;;;6.70;79.70;;;;;;5035433;28;20021;-78
2021/01/02 11:20:08;;;;;;;79.10;38.80;;;6.80;81.10;;;;;;5052532;28;20055;-78
2021/01/02 11:22:33;;;;;;;78.40;38.13;;;6.80;80.20;;;;;;5033492;28;20764;-79
2021/01/02 11:24:59;;;;;;;77.60;37.27;;;6.70;78.50;;;;;;5035426;28;20131;-79
2021/01/02 11:27:24;;;;;;;81.57;38.90;;;6.30;78.10;;;;;;5051717;28;20033;-79
2021/01/02 11:29:50;;;;;;;75.50;35.97;;;6.20;78.40;;;;;;5051629;28;20098;-78
2021/01/02 11:32:16;;;;;;;78.20;37.37;;;6.00;79.60;;;;;;5033834;28;20392;-77
2021/01/02 11:34:41;;;;;;;74.57;36.40;;;6.00;79.50;;;;;;5050892;28;20045;-78
2021/01/02 11:37:10;;;;;;;74.40;35.50;;;6.10;80.30;;;;;;5051506;28;20028;-78
2021/01/02 11:39:36;;;;;;;77.83;37.63;;;6.20;80.60;;;;;;5050796;28;20069;-78
2021/01/02 11:42:05;;;;;;;78.60;36.90;;;6.20;79.70;;;;;;5085182;28;20029;-78
2021/01/02 11:44:31;;;;;;;81.67;38.63;;;6.20;80.30;;;;;;5051992;28;20033;-79
2021/01/02 11:46:59;;;;;;;76.27;36.93;;;6.30;81.10;;;;;;5051842;28;20025;-78
2021/01/02 11:49:34;;;;;;;80.20;36.47;;;6.50;80.60;;;;;;5050738;28;20036;-79
2021/01/02 11:52:03;;;;;;;82.30;38.27;;;6.50;80.50;;;;;;5051672;28;20112;-78
2021/01/02 11:54:34;;;;;;;81.00;37.93;;;6.50;80.00;;;;;;5050248;28;20539;-78
2021/01/02 11:57:00;;;;;;;79.80;37.97;;;6.50;80.20;;;;;;5057550;28;20093;-77
2021/01/02 11:59:26;;;;;;;80.23;37.20;;;6.70;80.50;;;;;;5063689;28;20128;-79
2021/01/02 12:01:55;;;;;;;83.10;37.10;;;6.70;78.80;;;;;;5071358;28;20035;-79
2021/01/02 12:04:24;;;;;;;84.67;40.00;;;6.50;78.50;;;;;;5053733;28;20047;-78
2021/01/02 12:06:50;;;;;;;78.70;38.37;;;6.60;80.10;;;;;;5054997;28;20020;-79
2021/01/02 12:09:17;;;;;;;77.77;36.83;;;6.80;80.70;;;;;;5053182;28;20455;-78
2021/01/02 12:11:45;;;;;;;74.17;37.47;;;6.90;79.00;;;;;;5073006;28;20040;-78
2021/01/02 12:14:14;;;;;;;76.93;37.27;;;6.90;79.30;;;;;;5055054;28;20032;-79
2021/01/02 12:16:44;;;;;;;73.80;36.50;;;6.80;79.10;;;;;;5071752;28;20472;-77
2021/01/02 12:19:12;;;;;;;71.87;37.57;;;6.90;79.40;;;;;;5072500;28;20099;-78
2021/01/02 12:21:38;;;;;;;75.33;36.40;;;7.10;79.70;;;;;;5068542;28;20178;-78
2021/01/02 12:24:05;;;;;;;73.20;36.07;;;7.10;79.10;;;;;;5060821;28;20123;-77
2021/01/02 12:26:30;;;;;;;75.13;39.10;;;6.90;78.10;;;;;;5053279;28;20032;-77
2021/01/02 12:28:56;;;;;;;84.20;39.50;;;7.00;79.30;;;;;;5037397;28;20396;-78
2021/01/02 12:31:27;;;;;;;73.77;37.57;;;7.10;79.50;;;;;;5035795;28;20033;-77
2021/01/02 12:33:54;;;;;;;76.60;37.60;;;7.10;79.10;;;;;;5053244;28;20024;-78
2021/01/02 12:36:31;;;;;;;83.67;41.13;;;7.10;78.90;;;;;;5052836;28;20028;-78
2021/01/02 12:38:57;;;;;;;75.87;37.93;;;7.10;79.70;;;;;;5054081;28;20025;-78
2021/01/02 12:41:22;;;;;;;74.40;39.47;;;7.20;78.60;;;;;;5052494;28;20028;-77
2021/01/02 12:43:48;;;;;;;76.07;38.10;;;7.20;78.70;;;;;;5034059;28;20035;-77
2021/01/02 12:46:16;;;;;;;78.47;40.33;;;7.20;78.20;;;;;;5051896;28;20025;-77
2021/01/02 12:48:44;;;;;;;76.10;37.57;;;7.10;78.70;;;;;;5049857;28;20064;-77
2021/01/02 12:51:10;;;;;;;74.20;38.67;;;7.10;78.60;;;;;;5050553;28;20115;-78
2021/01/02 12:53:37;;;;;;;73.90;37.57;;;7.00;78.40;;;;;;5059093;28;20107;-78
2021/01/02 12:56:04;;;;;;;72.60;37.70;;;6.90;78.10;;;;;;5070073;28;20028;-77